Time;durP1;ratioP1;P1;durP2;ratioP2;P2;SDS_P1;SDS_P2;PMS_P1;PMS_P2;Temp;Humidity;BMP_temperature;BMP_pressure;BME280_temperature;BME280_humidity;BME280_pressure;Samples;Min_cycle;Max_cycle;Signal;HPM_P1;HPM_P2
2021/04/16 00:00:38;;;;;;;16.08;11.85;;;4.70;99.90;;;;;;5107129;27;20347;-54
2021/04/16 00:03:16;;;;;;;14.45;11.45;;;4.60;99.90;;;;;;5127361;27;20346;-57
2021/04/16 00:05:55;;;;;;;11.85;10.20;;;4.60;99.90;;;;;;5106933;27;20347;-51
2021/04/16 00:08:34;;;;;;;12.18;9.63;;;4.60;99.90;;;;;;5067055;28;20357;-49
2021/04/16 00:11:14;;;;;;;12.38;10.65;;;4.50;99.90;;;;;;5107388;27;20347;-49
2021/04/16 00:13:54;;;;;;;13.25;7.35;;;4.50;99.90;;;;;;5066212;28;20373;-50
2021/04/16 00:16:33;;;;;;;11.93;7.88;;;4.50;99.90;;;;;;5107197;27;20339;-47
2021/04/16 00:19:11;;;;;;;13.77;8.88;;;4.50;99.90;;;;;;5107446;27;20764;-50
2021/04/16 00:21:49;;;;;;;14.85;8.93;;;4.60;99.90;;;;;;5106813;27;20860;-51
2021/04/16 00:24:27;;;;;;;8.48;5.20;;;4.50;99.90;;;;;;5107051;27;20868;-48
2021/04/16 00:27:04;;;;;;;9.52;5.75;;;4.50;99.90;;;;;;5127698;27;20138;-51
2021/04/16 00:29:41;;;;;;;8.38;5.10;;;4.40;99.90;;;;;;5107840;27;20582;-53
2021/04/16 00:32:19;;;;;;;9.00;5.28;;;4.30;99.90;;;;;;5127392;27;20165;-52
2021/04/16 00:34:56;;;;;;;7.20;4.82;;;4.30;99.90;;;;;;5106827;27;20347;-49
2021/04/16 00:37:34;;;;;;;8.35;5.97;;;4.30;99.90;;;;;;5127275;27;20350;-51
2021/04/16 00:40:17;;;;;;;17.20;6.25;;;4.30;99.90;;;;;;5107330;27;20343;-49
2021/04/16 00:42:58;;;;;;;9.48;5.97;;;4.30;99.90;;;;;;5106717;27;20351;-51
2021/04/16 00:45:37;;;;;;;10.43;5.95;;;4.30;99.90;;;;;;5106660;27;20344;-51
2021/04/16 00:48:27;;;;;;;11.10;6.53;;;4.40;99.90;;;;;;5107540;27;20544;-50
2021/04/16 00:51:08;;;;;;;10.98;6.22;;;4.40;99.90;;;;;;5107419;27;20343;-49
2021/04/16 00:53:47;;;;;;;9.70;6.25;;;4.40;99.90;;;;;;5107116;27;20347;-52
2021/04/16 00:56:26;;;;;;;10.13;6.22;;;4.40;99.90;;;;;;5106935;27;20350;-48
2021/04/16 00:59:04;;;;;;;14.15;6.78;;;4.40;99.90;;;;;;5106988;27;20343;-51
2021/04/16 01:01:42;;;;;;;12.65;6.20;;;4.30;99.90;;;;;;5106843;27;20343;-50
2021/04/16 01:04:21;;;;;;;12.85;6.95;;;4.30;99.90;;;;;;5139499;27;20709;-51
2021/04/16 01:07:25;;;;;;;11.15;5.78;;;4.30;99.90;;;;;;5140753;27;20039;-51
2021/04/16 01:10:29;;;;;;;9.52;5.10;;;4.20;99.90;;;;;;5145520;27;20039;-51
2021/04/16 01:13:19;;;;;;;8.75;4.85;;;4.30;99.90;;;;;;5123915;27;20143;-48
2021/04/16 01:16:01;;;;;;;7.07;4.38;;;4.20;99.90;;;;;;5106867;27;20350;-47
2021/04/16 01:18:41;;;;;;;6.00;4.38;;;4.20;99.90;;;;;;5067096;28;20361;-47
2021/04/16 01:21:23;;;;;;;8.13;5.40;;;4.20;99.90;;;;;;5066518;28;20353;-48
2021/04/16 01:24:09;;;;;;;7.88;4.88;;;4.10;99.90;;;;;;5107090;27;20347;-50
2021/04/16 01:26:47;;;;;;;10.45;6.90;;;4.00;99.90;;;;;;5105555;27;20381;-50
2021/04/16 01:29:27;;;;;;;10.75;6.03;;;3.90;99.90;;;;;;5106978;27;20343;-51
2021/04/16 01:32:05;;;;;;;10.63;6.28;;;3.80;99.90;;;;;;5106937;27;20343;-51
2021/04/16 01:35:19;;;;;;;7.22;5.38;;;3.80;99.90;;;;;;5106590;28;20398;-49
2021/04/16 01:37:57;;;;;;;9.23;5.47;;;3.90;99.90;;;;;;5127499;27;20326;-48
2021/04/16 01:40:34;;;;;;;8.05;5.93;;;3.80;99.90;;;;;;5107152;27;20351;-51
2021/04/16 01:43:30;;;;;;;10.85;5.57;;;3.80;99.90;;;;;;5107178;27;20350;-48
2021/04/16 01:46:14;;;;;;;11.98;6.70;;;3.70;99.90;;;;;;5066088;28;20353;-50
2021/04/16 01:48:55;;;;;;;9.38;5.63;;;3.60;99.90;;;;;;5106983;27;20351;-49
2021/04/16 01:51:34;;;;;;;11.60;5.60;;;3.70;99.90;;;;;;5106726;27;20892;-49
2021/04/16 01:54:21;;;;;;;8.82;6.40;;;3.70;99.90;;;;;;5106960;27;20347;-48
2021/04/16 01:57:03;;;;;;;8.48;5.78;;;3.80;99.90;;;;;;5065346;28;20353;-48
2021/04/16 01:59:42;;;;;;;10.18;6.57;;;3.70;99.90;;;;;;5106962;27;20865;-47
2021/04/16 02:02:29;;;;;;;9.85;6.38;;;3.70;99.90;;;;;;5066284;28;20384;-49
2021/04/16 02:05:34;;;;;;;12.85;7.45;;;3.70;99.90;;;;;;5065941;28;20037;-49
2021/04/16 02:08:12;;;;;;;13.32;6.32;;;3.60;99.90;;;;;;5106734;27;20849;-50
2021/04/16 02:10:49;;;;;;;9.93;6.65;;;3.60;99.90;;;;;;5127784;27;20593;-47
2021/04/16 02:13:27;;;;;;;9.95;5.88;;;3.70;99.90;;;;;;5107317;27;20620;-49
2021/04/16 02:16:04;;;;;;;8.50;5.85;;;3.80;99.90;;;;;;5126974;27;20514;-49
2021/04/16 02:18:41;;;;;;;9.82;6.53;;;3.80;99.90;;;;;;5104708;27;20359;-54
2021/04/16 02:21:19;;;;;;;12.80;6.82;;;3.70;99.90;;;;;;5127043;27;20542;-52
2021/04/16 02:23:56;;;;;;;12.98;7.40;;;3.60;99.90;;;;;;5066567;28;20350;-49
2021/04/16 02:26:36;;;;;;;17.50;7.32;;;3.60;99.90;;;;;;5106206;27;20355;-49
2021/04/16 02:29:16;;;;;;;11.32;6.55;;;3.50;99.90;;;;;;5106262;27;20347;-48
2021/04/16 02:31:54;;;;;;;12.27;6.63;;;3.50;99.90;;;;;;5106918;27;20343;-49
2021/04/16 02:34:32;;;;;;;11.20;6.88;;;3.50;99.90;;;;;;5127618;27;20130;-49
2021/04/16 02:37:12;;;;;;;13.15;7.72;;;3.40;99.90;;;;;;5106402;27;20347;-49
2021/04/16 02:39:50;;;;;;;11.13;7.13;;;3.50;99.90;;;;;;5148269;27;20359;-50
2021/04/16 02:42:27;;;;;;;12.70;7.72;;;3.40;99.90;;;;;;5106877;27;20347;-47
2021/04/16 02:45:10;;;;;;;12.80;7.40;;;3.40;99.90;;;;;;5066932;28;20361;-49
2021/04/16 02:47:48;;;;;;;17.88;7.88;;;3.40;99.90;;;;;;5106859;27;20342;-50
2021/04/16 02:50:29;;;;;;;12.63;7.00;;;3.40;99.90;;;;;;5107676;27;20347;-50
2021/04/16 02:53:06;;;;;;;12.48;6.70;;;3.40;99.90;;;;;;5107346;27;20332;-48
2021/04/16 02:55:43;;;;;;;13.32;7.80;;;3.40;99.90;;;;;;5127187;27;20135;-47
2021/04/16 02:58:21;;;;;;;16.35;7.50;;;3.40;99.90;;;;;;5106559;27;20347;-47
2021/04/16 03:00:58;;;;;;;18.30;8.05;;;3.40;99.90;;;;;;5127760;27;20142;-48
2021/04/16 03:03:36;;;;;;;16.48;8.70;;;3.30;99.90;;;;;;5107093;27;20376;-47
2021/04/16 03:06:14;;;;;;;14.13;8.60;;;3.30;99.90;;;;;;5106599;27;20861;-50
2021/04/16 03:08:57;;;;;;;14.63;8.07;;;3.20;99.90;;;;;;5127701;27;20211;-49
2021/04/16 03:11:35;;;;;;;12.70;7.53;;;3.10;99.90;;;;;;5066759;28;20352;-47
2021/04/16 03:14:13;;;;;;;14.02;7.07;;;3.10;99.90;;;;;;5107360;27;20412;-47
2021/04/16 03:16:51;;;;;;;14.23;7.82;;;3.00;99.90;;;;;;5106583;27;20351;-49
2021/04/16 03:19:29;;;;;;;17.63;7.68;;;2.80;99.90;;;;;;5127733;27;20184;-49
2021/04/16 03:22:06;;;;;;;9.98;7.22;;;2.80;99.90;;;;;;5107144;27;20335;-50
2021/04/16 03:24:43;;;;;;;13.85;7.75;;;2.80;99.90;;;;;;5127948;27;20408;-47
2021/04/16 03:27:21;;;;;;;10.60;7.95;;;2.70;99.90;;;;;;5086174;27;20352;-49
2021/04/16 03:29:58;;;;;;;15.07;8.35;;;2.70;99.90;;;;;;5128274;27;20135;-48
2021/04/16 03:32:36;;;;;;;13.80;9.07;;;2.70;99.90;;;;;;5066723;28;20513;-51
2021/04/16 03:35:15;;;;;;;14.27;8.20;;;2.70;99.90;;;;;;5106923;27;20852;-48
2021/04/16 03:37:53;;;;;;;13.98;8.18;;;2.70;99.90;;;;;;5065860;28;20783;-48
2021/04/16 03:40:32;;;;;;;15.30;8.82;;;2.70;99.90;;;;;;5107119;27;20347;-49
2021/04/16 03:43:10;;;;;;;14.00;9.15;;;2.80;99.90;;;;;;5106968;27;20339;-49
2021/04/16 03:45:48;;;;;;;17.70;9.70;;;2.80;99.90;;;;;;5127319;27;20159;-49
2021/04/16 03:48:27;;;;;;;11.57;7.85;;;3.20;99.90;;;;;;5066354;28;20345;-50
2021/04/16 03:51:06;;;;;;;13.80;8.50;;;3.20;99.90;;;;;;5107013;27;20702;-50
2021/04/16 03:53:45;;;;;;;17.13;9.15;;;3.20;99.90;;;;;;5107071;27;21273;-50
2021/04/16 03:56:23;;;;;;;13.88;8.75;;;3.20;99.90;;;;;;5106475;27;20350;-48
2021/04/16 03:59:01;;;;;;;16.80;9.27;;;3.20;99.90;;;;;;5066811;28;20350;-47
2021/04/16 04:01:39;;;;;;;16.25;8.68;;;3.20;99.90;;;;;;5127596;27;20158;-51
2021/04/16 04:04:17;;;;;;;14.05;8.68;;;3.10;99.90;;;;;;5107110;27;20351;-50
2021/04/16 04:06:54;;;;;;;14.85;8.90;;;3.10;99.90;;;;;;5066154;28;20349;-50
2021/04/16 04:09:33;;;;;;;15.90;9.85;;;3.10;99.90;;;;;;5128068;27;20139;-49
2021/04/16 04:12:11;;;;;;;14.10;9.40;;;3.10;99.90;;;;;;5106923;27;20355;-52
2021/04/16 04:14:49;;;;;;;15.65;9.88;;;3.10;99.90;;;;;;5107071;27;20392;-48
2021/04/16 04:17:32;;;;;;;17.52;9.82;;;3.10;99.90;;;;;;5106405;27;20411;-51
2021/04/16 04:20:20;;;;;;;16.50;9.88;;;3.10;99.90;;;;;;5107137;27;20873;-50
2021/04/16 04:22:59;;;;;;;15.80;10.00;;;3.10;99.90;;;;;;5066268;28;20337;-47
2021/04/16 04:25:37;;;;;;;19.08;9.85;;;3.10;99.90;;;;;;5106912;27;20713;-48
2021/04/16 04:28:15;;;;;;;22.73;12.23;;;3.00;99.90;;;;;;5127473;27;20196;-51
2021/04/16 04:30:53;;;;;;;28.52;16.10;;;2.90;99.90;;;;;;5087044;28;20344;-47
2021/04/16 04:33:30;;;;;;;26.45;15.15;;;2.80;99.90;;;;;;5107094;27;20351;-52
2021/04/16 04:36:09;;;;;;;18.50;12.05;;;2.80;99.90;;;;;;5106260;27;20752;-51
2021/04/16 04:38:50;;;;;;;20.75;10.48;;;2.80;99.90;;;;;;5106603;27;20868;-51
2021/04/16 04:41:28;;;;;;;37.70;15.88;;;2.90;99.90;;;;;;5106885;27;20351;-49
2021/04/16 04:44:06;;;;;;;29.75;14.77;;;2.90;99.90;;;;;;5127680;27;20184;-48
2021/04/16 04:46:43;;;;;;;24.58;12.90;;;2.90;99.90;;;;;;5066410;28;20349;-48
2021/04/16 04:49:21;;;;;;;26.73;14.18;;;2.90;99.90;;;;;;5107616;27;20347;-47
2021/04/16 04:52:32;;;;;;;20.42;11.70;;;3.00;99.90;;;;;;5127345;27;20534;-49
2021/04/16 04:55:38;;;;;;;20.42;10.75;;;3.10;99.90;;;;;;5116106;28;20039;-50
2021/04/16 04:58:15;;;;;;;26.92;12.77;;;3.20;99.90;;;;;;5098373;27;20641;-49
2021/04/16 05:01:20;;;;;;;24.92;12.73;;;3.20;99.90;;;;;;5067835;28;20036;-48
2021/04/16 05:03:58;;;;;;;18.42;10.98;;;3.30;99.90;;;;;;5108854;27;20140;-51
2021/04/16 05:06:36;;;;;;;20.23;11.98;;;3.50;99.90;;;;;;5106847;27;20347;-50
2021/04/16 05:09:13;;;;;;;21.27;13.63;;;3.60;99.90;;;;;;5127123;27;20127;-48
2021/04/16 05:11:51;;;;;;;23.80;11.30;;;3.80;99.90;;;;;;5055194;28;20743;-49
2021/04/16 05:14:29;;;;;;;16.88;10.55;;;3.80;99.90;;;;;;5098026;27;20339;-47
2021/04/16 05:17:07;;;;;;;12.48;7.28;;;4.00;99.90;;;;;;5086576;27;20388;-49
2021/04/16 05:19:45;;;;;;;12.10;7.72;;;4.10;99.90;;;;;;5106960;27;20358;-48
2021/04/16 05:22:22;;;;;;;10.88;6.65;;;4.20;99.90;;;;;;5106549;27;20143;-50
2021/04/16 05:25:00;;;;;;;11.18;7.03;;;4.40;99.90;;;;;;5087184;27;20348;-52
2021/04/16 05:27:38;;;;;;;17.42;8.80;;;4.70;99.90;;;;;;5106371;27;20347;-52
2021/04/16 05:30:16;;;;;;;16.83;7.18;;;5.10;99.90;;;;;;5100583;27;20339;-50
2021/04/16 05:32:54;;;;;;;9.63;6.65;;;5.60;99.90;;;;;;5107080;27;20343;-49
2021/04/16 05:35:32;;;;;;;11.77;6.25;;;6.60;99.90;;;;;;5127848;27;20216;-52
2021/04/16 05:38:10;;;;;;;14.50;6.95;;;7.60;99.90;;;;;;5106947;27;20347;-47
2021/04/16 05:40:48;;;;;;;11.30;6.50;;;9.20;99.90;;;;;;5106540;27;20343;-52
2021/04/16 05:43:26;;;;;;;9.07;5.47;;;11.10;99.90;;;;;;5076072;27;20369;-51
2021/04/16 05:46:04;;;;;;;9.70;5.80;;;13.00;99.90;;;;;;5102337;27;20378;-49
2021/04/16 05:48:43;;;;;;;9.20;5.95;;;14.40;99.90;;;;;;5043058;28;20363;-53
2021/04/16 05:51:20;;;;;;;7.93;4.18;;;15.70;99.90;;;;;;5101932;27;20357;-50
2021/04/16 05:53:58;;;;;;;8.93;4.75;;;16.70;97.40;;;;;;5088247;27;20715;-49
2021/04/16 05:56:37;;;;;;;8.90;5.07;;;15.90;97.20;;;;;;5106932;27;20853;-49
2021/04/16 05:59:15;;;;;;;8.77;5.32;;;15.30;97.50;;;;;;5103309;27;20893;-47
2021/04/16 06:01:59;;;;;;;7.60;4.82;;;14.20;98.20;;;;;;5082232;27;20361;-49
2021/04/16 06:04:39;;;;;;;7.53;5.10;;;13.30;99.40;;;;;;5086462;27;20368;-51
2021/04/16 06:07:16;;;;;;;6.35;4.75;;;12.50;99.90;;;;;;5084987;27;20353;-53
2021/04/16 06:09:56;;;;;;;9.02;5.22;;;12.60;99.90;;;;;;5087406;27;20714;-50
2021/04/16 06:12:37;;;;;;;8.15;4.72;;;13.90;99.90;;;;;;5089054;27;20352;-51
2021/04/16 06:15:20;;;;;;;5.95;4.50;;;15.60;99.10;;;;;;5098347;27;20359;-50
2021/04/16 06:17:57;;;;;;;9.27;5.03;;;17.30;96.70;;;;;;5098604;27;20696;-51
2021/04/16 06:20:35;;;;;;;9.02;4.75;;;18.60;95.60;;;;;;5102075;27;20363;-52
2021/04/16 06:23:14;;;;;;;13.57;8.00;;;18.60;92.90;;;;;;5061520;28;20357;-48
2021/04/16 06:25:51;;;;;;;15.27;8.18;;;15.00;94.50;;;;;;5059394;28;20439;-49
2021/04/16 06:28:29;;;;;;;14.43;8.85;;;15.00;95.80;;;;;;5105836;27;20259;-50
2021/04/16 06:31:06;;;;;;;12.90;7.18;;;16.40;95.80;;;;;;5084286;27;20870;-51
2021/04/16 06:34:11;;;;;;;12.95;7.43;;;16.40;93.80;;;;;;5065712;28;20029;-49
2021/04/16 06:37:16;;;;;;;13.35;6.85;;;15.90;93.10;;;;;;5055423;28;20044;-50
2021/04/16 06:40:21;;;;;;;13.10;7.43;;;14.70;92.70;;;;;;5061417;28;20838;-49
2021/04/16 06:43:53;;;;;;;10.40;6.45;;;14.60;94.50;;;;;;5061755;28;20021;-51
2021/04/16 06:47:05;;;;;;;9.00;5.35;;;16.60;92.80;;;;;;5061577;28;20490;-50
2021/04/16 06:50:14;;;;;;;9.07;5.87;;;18.20;90.80;;;;;;5046015;28;20045;-49
2021/04/16 06:53:37;;;;;;;8.63;5.38;;;18.10;88.90;;;;;;5064043;28;20045;-49
2021/04/16 06:56:46;;;;;;;11.20;6.07;;;16.90;87.30;;;;;;5065972;28;20033;-48
2021/04/16 07:00:06;;;;;;;12.73;5.85;;;16.70;90.80;;;;;;5065752;28;20063;-49
2021/04/16 07:03:13;;;;;;;8.63;5.00;;;16.60;90.50;;;;;;5055009;28;20040;-49
2021/04/16 07:06:24;;;;;;;7.38;5.10;;;18.40;90.10;;;;;;5064358;28;20048;-51
2021/04/16 07:09:42;;;;;;;9.30;5.43;;;18.30;89.00;;;;;;5065309;28;20037;-52
2021/04/16 07:12:50;;;;;;;9.55;4.10;;;18.60;86.00;;;;;;5064183;28;20025;-48
2021/04/16 07:15:54;;;;;;;5.95;3.40;;;19.30;86.40;;;;;;5062840;28;20385;-49
2021/04/16 07:19:09;;;;;;;7.50;3.80;;;19.90;83.00;;;;;;5056713;28;20048;-49
2021/04/16 07:22:21;;;;;;;6.55;4.10;;;17.30;82.20;;;;;;5050099;28;20496;-48
2021/04/16 07:25:43;;;;;;;7.93;3.65;;;18.20;82.10;;;;;;5057882;28;20503;-48
2021/04/16 07:28:51;;;;;;;4.97;3.00;;;18.90;80.90;;;;;;5065647;28;20399;-51
2021/04/16 07:31:57;;;;;;;7.57;3.38;;;19.80;83.10;;;;;;5064767;28;20075;-48
2021/04/16 07:35:24;;;;;;;5.80;3.22;;;20.80;78.20;;;;;;5053981;28;20224;-49
2021/04/16 07:38:30;;;;;;;5.15;3.00;;;21.20;75.00;;;;;;5056731;28;20036;-49
2021/04/16 07:42:10;;;;;;;8.48;3.45;;;20.90;76.70;;;;;;5051770;28;20033;-48
2021/04/16 07:45:17;;;;;;;4.22;2.90;;;21.50;74.90;;;;;;5038247;28;20037;-50
2021/04/16 07:48:21;;;;;;;5.85;2.97;;;21.30;75.40;;;;;;5048119;28;20666;-49
2021/04/16 07:51:32;;;;;;;4.60;2.58;;;22.10;73.90;;;;;;5044442;28;20045;-49
2021/04/16 07:54:36;;;;;;;5.32;2.70;;;23.10;71.70;;;;;;5050420;28;20037;-50
2021/04/16 07:58:03;;;;;;;3.92;2.47;;;24.40;68.60;;;;;;5050553;28;20041;-49
2021/04/16 08:01:25;;;;;;;5.05;2.55;;;24.50;65.20;;;;;;5050709;28;20032;-49
2021/04/16 08:04:35;;;;;;;3.80;2.35;;;24.50;65.80;;;;;;5038028;28;20045;-54
2021/04/16 08:07:39;;;;;;;4.95;2.45;;;23.80;64.90;;;;;;5039293;28;20048;-49
2021/04/16 08:10:51;;;;;;;3.97;2.50;;;23.30;62.80;;;;;;5043076;28;20040;-50
2021/04/16 08:14:00;;;;;;;;;;;24.10;65.10;;;;;;5043890;28;20083;-49
2021/04/16 08:17:15;;;;;;;5.85;2.35;;;20.80;60.50;;;;;;5039455;28;19916;-50
2021/04/16 08:20:35;;;;;;;6.28;2.70;;;22.60;62.00;;;;;;5051171;28;20036;-48
2021/04/16 08:24:06;;;;;;;3.35;2.40;;;20.60;66.10;;;;;;5037988;28;20037;-51
2021/04/16 08:27:19;;;;;;;4.90;2.55;;;21.60;63.40;;;;;;5047092;28;20403;-48
2021/04/16 08:30:33;;;;;;;4.35;2.50;;;22.60;64.00;;;;;;5046843;28;20396;-51
2021/04/16 08:33:44;;;;;;;6.13;2.72;;;22.30;62.30;;;;;;5045121;28;20036;-53
2021/04/16 08:36:49;;;;;;;17.25;11.55;;;21.80;60.80;;;;;;5048971;28;20037;-50
2021/04/16 08:39:54;;;;;;;7.45;3.75;;;20.30;63.80;;;;;;5046002;28;20068;-51
2021/04/16 08:42:59;;;;;;;20.42;14.25;;;16.40;68.70;;;;;;5047639;28;20500;-54
2021/04/16 08:46:27;;;;;;;5.57;3.10;;;16.40;71.60;;;;;;5032586;28;20052;-53
2021/04/16 08:49:35;;;;;;;5.18;2.75;;;17.70;69.20;;;;;;5043725;28;20033;-51
2021/04/16 08:52:45;;;;;;;7.38;3.85;;;17.40;65.50;;;;;;5045573;28;20040;-55
2021/04/16 08:55:52;;;;;;;7.10;3.33;;;15.60;70.70;;;;;;5035607;28;20037;-55
2021/04/16 08:58:56;;;;;;;4.90;2.53;;;18.90;69.90;;;;;;5049213;28;20058;-50
2021/04/16 09:02:22;;;;;;;6.28;2.20;;;22.90;64.80;;;;;;5039422;28;20063;-53
2021/04/16 09:05:36;;;;;;;9.65;2.70;;;25.20;59.70;;;;;;5047231;28;20503;-52
2021/04/16 09:08:48;;;;;;;5.35;2.30;;;22.90;62.30;;;;;;5047607;28;20381;-51
2021/04/16 09:11:54;;;;;;;2.90;2.45;;;24.00;59.70;;;;;;5045800;28;20033;-53
2021/04/16 09:14:59;;;;;;;83.80;50.42;;;26.10;57.70;;;;;;5042107;28;21026;-51
2021/04/16 09:18:03;;;;;;;7.03;5.47;;;22.10;59.90;;;;;;5042499;28;20056;-51
2021/04/16 09:21:24;;;;;;;3.83;2.60;;;21.70;61.40;;;;;;5039200;28;20051;-51
2021/04/16 09:24:49;;;;;;;5.30;2.10;;;24.80;58.60;;;;;;5039614;28;20045;-53
2021/04/16 09:28:15;;;;;;;9.27;5.55;;;24.80;55.20;;;;;;5042083;28;20047;-50
2021/04/16 09:31:22;;;;;;;14.90;9.30;;;24.70;56.10;;;;;;5043371;28;20040;-54
2021/04/16 09:34:49;;;;;;;4.97;2.53;;;23.60;55.60;;;;;;5048759;28;20040;-53
2021/04/16 09:38:22;;;;;;;50.13;34.47;;;21.90;54.80;;;;;;5037318;28;20150;-51
2021/04/16 09:41:32;;;;;;;4.60;2.25;;;22.70;56.00;;;;;;5047303;28;20052;-52
2021/04/16 09:44:45;;;;;;;5.85;3.75;;;20.30;56.60;;;;;;5048873;28;20385;-51
2021/04/16 09:47:52;;;;;;;32.60;26.10;;;23.60;57.90;;;;;;5048237;28;20053;-51
2021/04/16 09:51:00;;;;;;;9.18;6.57;;;20.80;56.50;;;;;;5033904;28;20411;-51
2021/04/16 09:54:08;;;;;;;2.85;2.00;;;20.80;60.80;;;;;;5048885;28;20029;-50
2021/04/16 09:57:16;;;;;;;5.57;2.20;;;24.20;55.60;;;;;;5045196;28;20033;-54
2021/04/16 10:00:39;;;;;;;6.28;2.13;;;28.30;54.30;;;;;;5048288;28;20053;-51
2021/04/16 10:04:07;;;;;;;3.75;2.25;;;31.50;51.20;;;;;;5048912;28;20041;-57
2021/04/16 10:07:13;;;;;;;4.53;2.05;;;31.80;46.50;;;;;;5049157;28;20057;-51
2021/04/16 10:10:30;;;;;;;3.03;1.92;;;32.10;45.70;;;;;;5048597;28;20055;-54
2021/04/16 10:13:39;;;;;;;83.07;66.07;;;31.10;46.00;;;;;;5046796;28;20543;-54
2021/04/16 10:16:44;;;;;;;4.05;2.00;;;29.30;44.10;;;;;;5048991;28;20043;-54
2021/04/16 10:20:07;;;;;;;18.35;15.50;;;28.40;47.80;;;;;;5048452;28;20045;-52
2021/04/16 10:23:23;;;;;;;7.22;5.38;;;26.00;45.50;;;;;;5046951;28;20044;-51
2021/04/16 10:45:24;;;;;;;4.40;2.28;;;22.20;52.70;;;;;;5048092;28;20048;-52
2021/04/16 12:39:57;;;;;;;4.45;1.80;;;18.90;54.50;;;;;;5107349;27;20090;-49
2021/04/16 12:42:35;;;;;;;7.97;2.35;;;18.90;55.80;;;;;;5065208;28;20376;-50
2021/04/16 12:45:14;;;;;;;9.40;3.55;;;18.50;55.50;;;;;;5105922;27;20351;-48
2021/04/16 12:47:57;;;;;;;5.65;2.95;;;18.40;56.20;;;;;;5105888;27;20351;-49
2021/04/16 12:50:37;;;;;;;5.97;3.90;;;18.40;57.30;;;;;;5102455;27;20355;-49
2021/04/16 12:53:15;;;;;;;11.77;4.57;;;18.40;57.70;;;;;;5105004;27;20335;-50
2021/04/16 12:55:53;;;;;;;3.08;2.13;;;18.30;57.70;;;;;;5063571;28;20357;-49
2021/04/16 12:58:36;;;;;;;8.52;3.13;;;17.60;57.40;;;;;;5126967;27;20127;-50
2021/04/16 13:01:44;;;;;;;6.13;2.60;;;17.50;58.70;;;;;;5127604;28;20039;-52
2021/04/16 13:04:25;;;;;;;5.95;2.15;;;17.40;59.90;;;;;;5106019;27;21205;-54
2021/04/16 13:07:03;;;;;;;7.38;2.22;;;17.40;60.10;;;;;;5106673;27;20339;-53
2021/04/16 13:10:16;;;;;;;4.40;2.38;;;17.10;59.30;;;;;;5105994;28;20032;-54
2021/04/16 13:12:55;;;;;;;6.82;2.38;;;17.20;60.10;;;;;;5054845;28;20401;-50
2021/04/16 13:15:33;;;;;;;4.68;1.90;;;17.60;59.40;;;;;;5106608;27;21090;-49
2021/04/16 13:18:40;;;;;;;3.88;2.00;;;18.20;58.70;;;;;;5106017;28;20040;-54
2021/04/16 13:21:27;;;;;;;4.57;2.35;;;18.00;58.70;;;;;;5105664;27;20343;-51
2021/04/16 13:24:06;;;;;;;3.80;2.20;;;17.20;59.70;;;;;;5105219;27;20396;-51
2021/04/16 13:26:44;;;;;;;2.90;1.90;;;16.60;59.80;;;;;;5064769;28;20361;-52
2021/04/16 13:29:21;;;;;;;2.28;1.85;;;16.50;61.00;;;;;;5127643;27;20769;-49
2021/04/16 13:32:00;;;;;;;4.93;2.10;;;16.70;61.80;;;;;;5065767;28;20354;-49
2021/04/16 13:34:41;;;;;;;7.25;2.47;;;17.10;61.40;;;;;;5106630;27;20383;-49
2021/04/16 13:37:19;;;;;;;7.65;2.85;;;17.30;60.30;;;;;;5106622;27;20339;-50
2021/04/16 13:39:58;;;;;;;7.88;4.22;;;17.00;61.00;;;;;;5100644;27;20397;-52
2021/04/16 13:42:36;;;;;;;5.25;3.42;;;17.30;60.10;;;;;;5106985;27;20354;-49
2021/04/16 13:45:14;;;;;;;6.97;2.95;;;17.20;60.10;;;;;;5105002;27;20358;-48
2021/04/16 13:47:51;;;;;;;6.30;2.15;;;17.20;61.40;;;;;;5106609;27;20347;-54
2021/04/16 13:50:31;;;;;;;4.75;2.45;;;17.50;61.10;;;;;;5065887;28;21066;-52
2021/04/16 13:53:08;;;;;;;5.57;2.70;;;17.70;59.50;;;;;;5106155;27;20892;-50
2021/04/16 13:55:47;;;;;;;5.55;2.72;;;17.40;60.20;;;;;;5106330;27;20897;-53
2021/04/16 13:58:24;;;;;;;4.75;2.53;;;17.00;60.90;;;;;;5105862;27;20335;-49
2021/04/16 14:01:02;;;;;;;8.15;2.80;;;17.20;61.50;;;;;;5127389;27;20136;-54
2021/04/16 14:03:47;;;;;;;4.22;2.47;;;17.10;60.70;;;;;;5086279;27;20344;-49
2021/04/16 14:06:55;;;;;;;7.28;3.00;;;16.90;61.80;;;;;;5085267;28;20036;-48
2021/04/16 14:10:00;;;;;;;6.82;2.53;;;16.60;61.70;;;;;;5086667;28;20494;-52
2021/04/16 14:13:04;;;;;;;4.55;2.55;;;16.50;63.00;;;;;;5066309;28;20514;-51
2021/04/16 14:16:14;;;;;;;5.93;2.67;;;16.90;61.50;;;;;;5078887;28;20494;-48
2021/04/16 14:19:24;;;;;;;4.63;2.58;;;17.00;63.20;;;;;;5086023;28;20052;-50
2021/04/16 14:22:40;;;;;;;6.57;3.20;;;17.20;62.30;;;;;;5086103;28;20040;-49
2021/04/16 14:25:44;;;;;;;8.38;3.78;;;17.00;62.30;;;;;;5084804;28;20040;-48
2021/04/16 14:28:49;;;;;;;13.55;6.47;;;16.70;62.10;;;;;;5085441;28;20040;-50
2021/04/16 14:31:53;;;;;;;5.18;2.80;;;16.80;61.60;;;;;;5085759;28;20514;-48
2021/04/16 14:34:57;;;;;;;9.25;2.58;;;16.50;63.00;;;;;;5085533;28;20044;-48
2021/04/16 14:38:02;;;;;;;7.00;3.67;;;16.50;62.70;;;;;;5085130;28;20533;-47
2021/04/16 14:41:07;;;;;;;4.95;2.40;;;16.30;63.30;;;;;;5085562;28;20053;-52
2021/04/16 14:44:16;;;;;;;5.55;3.88;;;15.60;63.60;;;;;;5084723;28;20036;-48
2021/04/16 14:47:20;;;;;;;8.45;3.15;;;15.70;65.30;;;;;;5085043;28;20040;-52
2021/04/16 14:50:27;;;;;;;7.50;3.88;;;16.50;64.10;;;;;;5085375;28;20044;-49
2021/04/16 14:53:51;;;;;;;4.65;2.58;;;16.70;63.20;;;;;;5085807;28;20028;-48
2021/04/16 14:56:57;;;;;;;5.35;2.20;;;16.40;61.50;;;;;;5071489;28;20486;-49
2021/04/16 15:00:06;;;;;;;12.75;3.60;;;16.40;62.70;;;;;;5083937;28;20040;-53
2021/04/16 15:03:10;;;;;;;9.70;4.70;;;16.20;62.30;;;;;;5085444;28;20043;-51
2021/04/16 15:06:23;;;;;;;6.55;3.05;;;16.10;62.80;;;;;;5084308;28;20052;-48
2021/04/16 15:09:48;;;;;;;6.00;3.20;;;15.80;62.70;;;;;;5084640;28;20041;-48
2021/04/16 15:12:52;;;;;;;6.38;2.85;;;15.80;63.90;;;;;;5083482;28;20052;-51
2021/04/16 15:16:02;;;;;;;9.23;2.83;;;16.00;62.20;;;;;;5071652;28;20045;-49
2021/04/16 15:19:06;;;;;;;6.97;4.10;;;15.90;63.10;;;;;;5071563;28;20036;-48
2021/04/16 15:22:22;;;;;;;10.82;3.53;;;15.40;62.90;;;;;;5070225;28;20044;-48
2021/04/16 15:25:26;;;;;;;6.70;3.28;;;15.20;64.30;;;;;;5071478;28;20048;-48
2021/04/16 15:28:36;;;;;;;5.93;3.15;;;15.00;63.60;;;;;;5070390;28;20040;-48
2021/04/16 15:31:40;;;;;;;5.47;3.08;;;14.80;64.30;;;;;;5070612;28;20491;-48
2021/04/16 15:48:18;;;;;;;4.00;2.80;;;14.60;65.20;;;;;;5071498;28;20037;-48
2021/04/16 15:51:25;;;;;;;7.13;4.28;;;14.60;64.70;;;;;;5070400;28;20044;-49
2021/04/16 15:54:30;;;;;;;7.35;3.50;;;14.50;65.30;;;;;;5069164;28;20041;-47
2021/04/16 15:57:41;;;;;;;7.00;3.13;;;14.20;65.20;;;;;;5069492;28;20029;-50
2021/04/16 16:00:50;;;;;;;5.45;3.17;;;14.00;66.50;;;;;;5070148;28;20036;-49
2021/04/16 16:03:54;;;;;;;7.68;4.22;;;14.00;65.90;;;;;;5055842;28;20535;-47
2021/04/16 16:07:00;;;;;;;7.85;4.70;;;14.10;65.90;;;;;;5054125;28;20032;-52
2021/04/16 16:10:06;;;;;;;6.15;4.05;;;13.80;66.60;;;;;;5070961;28;20495;-48
2021/04/16 16:13:27;;;;;;;7.75;3.97;;;13.40;67.20;;;;;;5069748;28;20521;-47
2021/04/16 16:16:32;;;;;;;10.07;4.53;;;13.30;67.40;;;;;;5069123;28;20048;-47
2021/04/16 16:19:36;;;;;;;7.88;4.80;;;13.50;67.30;;;;;;5070829;28;20047;-49
2021/04/16 16:22:40;;;;;;;8.73;4.65;;;13.40;67.20;;;;;;5069732;28;20040;-51
2021/04/16 16:25:44;;;;;;;9.77;4.80;;;13.40;67.10;;;;;;5068074;28;20352;-48
2021/04/16 16:28:52;;;;;;;15.00;5.78;;;13.50;67.80;;;;;;5063709;28;20017;-50
2021/04/16 16:31:59;;;;;;;13.48;6.25;;;13.50;67.80;;;;;;5055310;28;20518;-49
2021/04/16 16:35:06;;;;;;;11.55;6.32;;;13.40;67.10;;;;;;5058902;28;20048;-52
2021/04/16 16:38:12;;;;;;;9.02;4.70;;;13.30;66.80;;;;;;5065725;28;20056;-48
2021/04/16 16:41:17;;;;;;;14.23;5.35;;;13.20;66.90;;;;;;5073736;28;20518;-50
2021/04/16 16:44:27;;;;;;;8.32;3.95;;;13.20;66.70;;;;;;5064381;28;20062;-49
2021/04/16 16:47:31;;;;;;;11.02;4.50;;;13.20;66.90;;;;;;5064082;28;20036;-52
2021/04/16 16:50:39;;;;;;;9.85;4.10;;;13.10;68.10;;;;;;5055415;28;20040;-49
2021/04/16 16:53:44;;;;;;;7.25;3.75;;;13.00;68.40;;;;;;5067905;28;20059;-52
2021/04/16 16:56:25;;;;;;;9.60;4.03;;;13.00;67.80;;;;;;5101216;27;20350;-50
2021/04/16 16:59:04;;;;;;;6.13;4.18;;;12.90;68.30;;;;;;5087267;27;20367;-50
2021/04/16 17:01:41;;;;;;;7.18;4.22;;;12.80;68.00;;;;;;5094033;27;20383;-49
2021/04/16 17:04:20;;;;;;;8.35;4.68;;;12.70;68.10;;;;;;5095504;27;20358;-50
2021/04/16 17:06:57;;;;;;;9.90;3.97;;;12.60;68.60;;;;;;5095430;27;20355;-50
2021/04/16 17:09:35;;;;;;;11.95;5.53;;;12.50;68.90;;;;;;5123103;27;20432;-50
2021/04/16 17:12:16;;;;;;;9.05;4.35;;;12.40;69.10;;;;;;5107932;27;20363;-51
2021/04/16 17:14:55;;;;;;;11.85;6.55;;;12.20;69.50;;;;;;5058736;28;20377;-49
2021/04/16 17:17:33;;;;;;;9.77;4.53;;;12.10;69.60;;;;;;5043398;27;20374;-48
2021/04/16 17:20:13;;;;;;;11.85;5.43;;;12.10;69.30;;;;;;5061177;27;20358;-51